Chickering American River Reserve, California Weather observations

Data are for 10 minute period ending at time listed.
 Day   Time   Solar   Ave.   Ave.  Ave.  Vector  Max.   Baro.   Total    
  of    of     Rad.   Air    Rel.  Wind   Wind   Wind  Press.  Precip.   
Year   Day            Temp.  Hum.  Speed  Dir.   Gust                    
2016   (PST)  Kw/m2    F      %     mph   deg.    mph    mb.     in.     
-------------------------------------------------------------------------
  39   14:10   0.57   58.4    20    6.4    51    15.4   827.5    0.00 
  39   14:20   0.55   58.2    21    4.6    52    15.9   827.4    0.00 
  39   14:30   0.53   57.5    21    6.5    51    20.2   827.3    0.00 
  39   14:40   0.50   57.5    21    6.5    55    19.3   827.2    0.00 
  39   14:50   0.48   57.4    21    5.2    51    14.2   827.1    0.00 
  39   15:00   0.13   56.8    22    4.1    47    18.4   827.0    0.00 
  39   15:10   0.03   56.7    22    3.1    60    13.4   827.0    0.00 
  39   15:20   0.03   56.3    22    3.4    69    14.5   827.0    0.00 
  39   15:30   0.03   56.4    21    4.7    72    15.1   827.0    0.00 
  39   15:40   0.17   56.6    22    4.3    94    14.5   827.1    0.00 
  39   15:50   0.04   55.8    23    3.8    58    12.6   827.3    0.00 
  39   16:00   0.01   55.5    24    4.1    62    14.6   827.4    0.00 
  39   16:10   0.01   55.2    24    4.8    60    12.7   827.4    0.00 
  39   16:20   0.01   55.2    24    1.9    51     8.5   827.4    0.00 
  39   16:30   0.01   54.3    26    2.5    26     8.3   827.5    0.00 
  39   16:40   0.01   51.0    31    2.8     8     7.1   827.6    0.00 
  39   16:50   0.00   50.3    31    3.3    31     9.0   827.8    0.00 
  39   17:00   0.00   49.5    35    2.7    18     8.1   827.8    0.00 
  39   17:10   0.00   48.7    34    2.5    36    10.0   827.8    0.00 
  39   17:20   0.00   50.4    31    3.2    24     9.1   827.8    0.00 
  39   17:30   0.00   50.5    32    2.8    12     9.3   827.7    0.00 
  39   17:40   0.00   49.3    34    2.3     4     8.5   827.6    0.00 
  39   17:50   0.00   47.9    37    1.5   323     5.6   827.7    0.00 
  39   18:00   0.00   48.3    35    2.7     4     7.7   827.7    0.00 
  39   18:10   0.00   47.7    37    1.5   334     4.3   827.6    0.00 
  39   18:20   0.00   47.8    35    2.5   328     6.0   827.6    0.00 
  39   18:30   0.00   47.6    37    2.4   356     6.1   827.5    0.00 
  39   18:40   0.00   46.7    39    2.7    23     7.2   827.5    0.00 
  39   18:50   0.00   47.3    38    2.7    28     8.3   827.5    0.00 
  39   19:00   0.00   45.2    44    2.0     3     7.4   827.4    0.00 
  39   19:10   0.00   42.5    48    2.0   249     4.8   827.4    0.00 
  39   19:20   0.00   40.9    50    2.2   239     3.5   827.5    0.00 
  39   19:30   0.00   39.5    54    2.0   234     3.2   827.5    0.00 
  39   19:40   0.00   38.8    56    2.3   230     3.8   827.5    0.00 
  39   19:50   0.00   38.1    57    2.4   230     4.0   827.5    0.00 
  39   20:00   0.00   38.0    57    2.1   236     3.7   827.6    0.00 
  39   20:10   0.00   39.6    52    1.7   251     3.9   827.6    0.00 
  39   20:20   0.00   38.8    55    2.1   235     3.7   827.6    0.00 
  39   20:30   0.00   38.2    57    1.9   233     3.3   827.6    0.00 
  39   20:40   0.00   37.1    60    2.4   221     4.7   827.5    0.00 
  39   20:50   0.00   36.8    60    2.6   215     5.5   827.4    0.00 
  39   21:00   0.00   36.8    60    2.5   207     4.2   827.5    0.00 
  39   21:10   0.00   36.5    60    2.4   221     4.2   827.5    0.00 
  39   21:20   0.00   37.3    58    2.7   225     4.7   827.4    0.00 
  39   21:30   0.00   37.3    57    2.8   232     4.2   827.4    0.00 
  39   21:40   0.00   38.0    55    2.6   214     4.3   827.5    0.00 
  39   21:50   0.00   37.2    56    2.8   221     3.9   827.4    0.00 
  39   22:00   0.00   37.1    57    2.5   205     4.9   827.5    0.00 
  39   22:10   0.00   36.2    61    2.5   201     4.8   827.5    0.00 
  39   22:20   0.00   36.0    60    2.7   206     4.0   827.5    0.00 
  39   22:30   0.00   36.0    60    2.6   208     6.7   827.5    0.00 
  39   22:40   0.00   36.0    60    2.1   191     4.2   827.5    0.00 
  39   22:50   0.00   35.5    61    2.4   204     4.2   827.5    0.00 
  39   23:00   0.00   35.9    59    2.1   206     4.0   827.5    0.00 
  39   23:10   0.00   35.6    60    2.1   204     4.6   827.5    0.00 
  39   23:20   0.00   35.8    60    2.3   208     4.0   827.5    0.00 
  39   23:30   0.00   36.4    58    1.7   218     4.3   827.5    0.00 
  39   23:40   0.00   36.1    58    2.2   213     5.3   827.5    0.00 
  39   23:50   0.00   36.3    57    1.8   197     3.4   827.4    0.00 
  40    0:00   0.00   35.5    59    2.3   208     3.6   827.3    0.00 
  40    0:10   0.00   35.0    60    2.5   196     4.2   827.3    0.00 
  40    0:20   0.00   35.1    60    2.0   199     4.2   827.2    0.00 
  40    0:30   0.00   34.6    62    2.5   193     3.9   827.2    0.00 
  40    0:40   0.00   34.4    61    1.9   197     3.2   827.1    0.00 
  40    0:50   0.00   34.2    61    2.2   192     3.4   827.0    0.00 
  40    1:00   0.00   34.4    60    2.2   204     3.5   827.0    0.00 
  40    1:10   0.00   34.6    58    2.2   214     4.1   827.0    0.00 
  40    1:20   0.00   34.8    57    2.5   200     4.3   827.0    0.00 
  40    1:30   0.00   34.9    56    2.3   201     3.5   827.0    0.00 
  40    1:40   0.00   34.7    57    2.0   201     3.4   827.0    0.00 
  40    1:50   0.00   34.5    56    2.4   207     4.1   826.9    0.00 
  40    2:00   0.00   34.6    56    2.4   204     3.4   826.9    0.00 
  40    2:10   0.00   34.6    55    2.4   202     3.6   826.9    0.00 
  40    2:20   0.00   34.3    55    2.3   199     3.6   826.9    0.00 
  40    2:30   0.00   34.3    55    2.2   200     3.1   826.9    0.00 
  40    2:40   0.00   34.5    55    2.7   205     3.5   826.8    0.00 
  40    2:50   0.00   34.3    54    2.9   206     3.8   826.7    0.00 
  40    3:00   0.00   34.6    53    2.7   205     3.5   826.7    0.00 
  40    3:10   0.00   34.3    56    2.3   196     3.2   826.6    0.00 
  40    3:20   0.00   34.3    54    2.4   203     3.5   826.6    0.00 
  40    3:30   0.00   35.0    52    2.5   209     3.4   826.6    0.00 
  40    3:40   0.00   34.9    52    2.5   200     3.3   826.6    0.00 
  40    3:50   0.00   34.2    54    2.4   198     3.3   826.6    0.00 
  40    4:00   0.00   33.7    55    2.3   192     3.1   826.6    0.00 
  40    4:10   0.00   34.1    54    2.5   204     3.1   826.6    0.00 
  40    4:20   0.00   34.4    54    2.1   200     3.7   826.6    0.00 
  40    4:30   0.00   33.8    55    2.4   204     3.4   826.6    0.00 
  40    4:40   0.00   34.3    53    2.5   202     3.5   826.7    0.00 
  40    4:50   0.00   34.0    54    2.2   196     3.4   826.8    0.00 
  40    5:00   0.00   34.3    54    2.1   215     3.4   826.8    0.00 
  40    5:10   0.00   34.4    54    2.0   196     2.9   826.7    0.00 
  40    5:20   0.00   33.9    56    2.1   196     3.3   826.6    0.00 
  40    5:30   0.00   33.6    55    2.2   203     3.3   826.6    0.00 
  40    5:40   0.00   34.4    52    1.8   224     3.2   826.7    0.00 
  40    5:50   0.00   34.7    52    1.9   206     3.1   826.8    0.00 
  40    6:00   0.00   34.9    52    2.3   211     3.6   826.9    0.00 
  40    6:10   0.00   35.0    53    1.9   206     2.9   826.9    0.00 
  40    6:20   0.00   34.6    53    2.0   198     2.8   826.9    0.00 
  40    6:30   0.00   34.4    54    1.7   205     2.9   826.9    0.00 
  40    6:40   0.00   34.2    53    1.9   197     2.9   826.9    0.00 
  40    6:50   0.00   34.4    52    1.7   208     3.1   827.0    0.00 
  40    7:00   0.00   34.2    53    2.3   198     3.4   827.0    0.00 
  40    7:10   0.00   34.2    52    2.0   205     3.5   827.0    0.00 
  40    7:20   0.00   34.7    52    1.8   211     3.3   827.0    0.00 
  40    7:30   0.00   34.8    53    1.8   202     3.0   827.1    0.00 
  40    7:40   0.00   35.1    53    1.8   195     2.9   827.1    0.00 
  40    7:50   0.01   35.1    54    1.5   200     2.5   827.2    0.00 
  40    8:00   0.01   35.2    55    1.6   191     2.2   827.2    0.00 
  40    8:10   0.03   36.2    55    0.8   190     2.4   827.2    0.00 
  40    8:20   0.03   38.2    52    0.2   225     1.0   827.2    0.00 
  40    8:30   0.03   39.3    54    0.3   190     1.5   827.2    0.00 
  40    8:40   0.03   40.9    53    0.0   172     0.4   827.3    0.00 
  40    8:50   0.04   42.5    52    0.1    59     1.3   827.4    0.00 
  40    9:00   0.03   44.2    48    0.5   176     1.9   827.5    0.00 
  40    9:10   0.03   46.7    45    0.1   192     0.8   827.5    0.00 
  40    9:20   0.05   47.4    46    0.9   108     2.4   827.6    0.00 
  40    9:30   0.03   49.6    40    0.4    36     2.2   827.7    0.00 
  40    9:40   0.04   51.3    39    0.5    41     2.4   827.8    0.00 
  40    9:50   0.04   52.4    38    1.0    57     2.7   827.7    0.00 
  40   10:00   0.03   54.1    32    0.9    22     2.2   827.8    0.00 
  40   10:10   0.04   55.4    30    0.8    30     1.9   827.7    0.00 
  40   10:20   0.03   56.6    26    0.6    28     2.0   827.7    0.00 
  40   10:30   0.06   57.4    25    0.5    17     2.8   827.8    0.00 
  40   10:40   0.41   57.6    24    0.8   354     2.6   827.8    0.00 
  40   10:50   0.62   59.2    22    1.4     6     4.5   827.7    0.00 
  40   11:00   0.64   60.3    21    1.3   356     5.3   827.7    0.00 
  40   11:10   0.65   61.1    20    2.0    10     5.2   827.6    0.00 
  40   11:20   0.66   61.8    20    1.0   327     4.0   827.5    0.00 
  40   11:30   0.67   62.0    19    0.7   347     4.7   827.4    0.00 
  40   11:40   0.68   62.7    18    1.1    24     4.0   827.3    0.00 
  40   11:50   0.69   63.0    17    1.1    78     5.6   827.1    0.00 
  40   12:00   0.69   64.0    16    2.2   236     7.6   827.0    0.00 
  40   12:10   0.69   64.3    16    1.8   127     4.7   826.7    0.00 
  40   12:20   0.69   64.8    15    1.1    10     5.5   826.4    0.00 
  40   12:30   0.69   67.4    13    1.4   148     4.9   826.1    0.00 
  40   12:40   0.68   65.9    14    2.1   224     6.4   825.9    0.00 
  40   12:50   0.66   64.5    16    1.3   190     3.9   825.9    0.00 
  40   13:00   0.63   64.3    16    1.2   160     3.6   825.8    0.00 
  40   13:10   0.56   63.6    17    1.5   222     5.9   825.7    0.00 
  40   13:20   0.47   62.4    20    1.0    50     3.4   825.6    0.00 
  40   13:30   0.49   61.7    18    0.9   152     5.2   825.5    0.00 
  40   13:40   0.54   62.8    18    0.7   324     4.3   825.3    0.00 
  40   13:50   0.61   64.1    16    1.1   130     3.6   825.3    0.00 
  40   14:00   0.50   62.5    20    1.2   330     4.5   825.2    0.00 

Return to Chickering American River Reserve graphs page.


Western Regional Climate Center,wrcc@dri.edu